createdAt,value
2019-01-28T00:01:14.446Z,1.00
2019-01-28T00:03:44.891Z,1.00
2019-01-28T00:06:15.351Z,1.10
2019-01-28T00:08:45.695Z,1.00
2019-01-28T00:11:16.083Z,1.00
2019-01-28T00:13:46.831Z,0.90
2019-01-28T00:16:17.239Z,0.90
2019-01-28T00:18:47.589Z,0.80
2019-01-28T00:21:18.045Z,0.70
2019-01-28T00:23:48.476Z,0.70
2019-01-28T00:26:18.863Z,0.70
2019-01-28T00:28:49.303Z,0.70
2019-01-28T00:31:19.791Z,0.70
2019-01-28T00:33:50.147Z,0.70
2019-01-28T00:36:20.527Z,0.60
2019-01-28T00:38:50.879Z,0.70
2019-01-28T00:41:21.231Z,0.60
2019-01-28T00:43:51.584Z,0.60
2019-01-28T00:46:21.919Z,0.70
2019-01-28T00:49:03.835Z,0.70
2019-01-28T00:51:34.256Z,0.90
2019-01-28T00:54:04.642Z,0.80
2019-01-28T00:56:36.104Z,0.90
2019-01-28T00:59:06.571Z,0.90
2019-01-28T01:01:36.915Z,1.00
2019-01-28T01:04:07.287Z,1.00
2019-01-28T01:06:37.739Z,1.00
2019-01-28T01:09:10.019Z,1.10
2019-01-28T01:11:40.355Z,1.10
2019-01-28T01:14:10.703Z,1.20
2019-01-28T01:16:41.051Z,1.20
2019-01-28T01:19:11.404Z,1.30
2019-01-28T01:21:41.803Z,1.40
2019-01-28T01:24:12.164Z,1.40
2019-01-28T01:26:42.565Z,1.40
2019-01-28T01:29:12.960Z,1.30
2019-01-28T01:31:43.311Z,1.30
2019-01-28T01:34:13.690Z,1.20
2019-01-28T01:36:44.099Z,1.30
2019-01-28T01:39:14.447Z,1.20
2019-01-28T01:41:44.819Z,1.30
2019-01-28T01:44:15.151Z,1.30
2019-01-28T01:46:45.520Z,1.30
2019-01-28T01:49:15.888Z,1.20
2019-01-28T01:54:15.974Z,1.20
2019-01-28T01:56:46.381Z,1.10
2019-01-28T01:59:16.731Z,1.10
2019-01-28T02:01:47.071Z,1.00
2019-01-28T02:04:17.423Z,0.90
2019-01-28T02:06:47.763Z,0.90
2019-01-28T02:09:18.161Z,0.80
2019-01-28T02:11:48.503Z,0.90
2019-01-28T02:14:18.911Z,0.80
2019-01-28T02:16:49.336Z,0.60
2019-01-28T02:19:19.707Z,0.60
2019-01-28T02:21:50.063Z,0.60
2019-01-28T02:24:20.415Z,0.70
2019-01-28T02:26:50.808Z,0.80
2019-01-28T02:29:21.243Z,0.90
2019-01-28T02:31:51.637Z,0.90
2019-01-28T02:34:22.052Z,1.10
2019-01-28T02:36:52.519Z,1.10
2019-01-28T02:39:22.855Z,1.10
2019-01-28T02:41:53.272Z,1.10
2019-01-28T02:44:23.691Z,1.10
2019-01-28T02:46:54.104Z,1.20
2019-01-28T02:49:24.454Z,1.20
2019-01-28T02:51:54.871Z,1.20
2019-01-28T02:54:25.291Z,1.20
2019-01-28T02:56:55.641Z,1.10
2019-01-28T02:59:26.012Z,1.10
2019-01-28T03:01:56.412Z,1.10
2019-01-28T03:06:56.479Z,0.90
2019-01-28T03:09:26.832Z,0.80
2019-01-28T03:11:57.279Z,0.80
2019-01-28T03:14:28.052Z,0.80
2019-01-28T03:17:08.554Z,0.70
2019-01-28T03:19:39.164Z,0.70
2019-01-28T03:22:09.498Z,0.60
2019-01-28T03:24:39.847Z,0.70
2019-01-28T03:27:10.183Z,0.70
2019-01-28T03:29:40.554Z,0.70
2019-01-28T03:32:10.963Z,0.70
2019-01-28T03:34:41.411Z,0.60
2019-01-28T03:37:11.740Z,0.60
2019-01-28T03:39:42.115Z,0.60
2019-01-28T03:42:12.463Z,0.50
2019-01-28T03:44:42.831Z,0.60
2019-01-28T03:47:13.179Z,0.60
2019-01-28T03:49:43.548Z,0.60
2019-01-28T03:52:16.383Z,0.80
2019-01-28T03:54:46.776Z,0.80
2019-01-28T03:57:17.202Z,1.00
2019-01-28T03:59:47.620Z,1.00
2019-01-28T04:02:18.043Z,1.10
2019-01-28T04:04:48.382Z,1.10
2019-01-28T04:07:18.747Z,1.20
2019-01-28T04:09:49.079Z,1.20
2019-01-28T04:12:19.446Z,1.20
2019-01-28T04:14:49.887Z,1.20
2019-01-28T04:17:20.238Z,1.20
2019-01-28T04:19:50.644Z,1.20
2019-01-28T04:22:20.979Z,1.20
2019-01-28T04:24:51.318Z,1.20
2019-01-28T04:27:21.664Z,1.30
2019-01-28T04:29:52.048Z,1.30
2019-01-28T04:32:22.475Z,1.20
2019-01-28T04:34:52.903Z,1.30
2019-01-28T04:37:23.253Z,1.20
2019-01-28T04:39:53.632Z,1.20
2019-01-28T04:42:23.980Z,1.20
2019-01-28T04:44:54.367Z,1.20
2019-01-28T04:47:24.720Z,1.10
2019-01-28T04:49:55.083Z,1.10
2019-01-28T04:52:25.432Z,1.00
2019-01-28T04:54:55.791Z,1.00
2019-01-28T04:57:38.852Z,0.90
2019-01-28T05:00:13.167Z,0.80
2019-01-28T05:02:43.538Z,0.80
2019-01-28T05:05:14.613Z,0.80
2019-01-28T05:07:45.048Z,0.80
2019-01-28T05:10:16.326Z,0.90
2019-01-28T05:12:47.087Z,1.00
2019-01-28T05:15:17.771Z,1.00
2019-01-28T05:17:48.210Z,1.10
2019-01-28T05:20:20.099Z,1.10
2019-01-28T05:22:50.612Z,1.10
2019-01-28T05:25:20.959Z,1.20
2019-01-28T05:27:51.375Z,1.20
2019-01-28T05:30:24.069Z,1.30
2019-01-28T05:32:54.499Z,1.30
2019-01-28T05:35:24.875Z,1.20
2019-01-28T05:37:55.207Z,1.20
2019-01-28T05:40:25.723Z,1.20
2019-01-28T05:42:56.136Z,1.20
2019-01-28T05:45:26.855Z,1.30
2019-01-28T05:47:57.219Z,1.30
2019-01-28T05:50:29.282Z,1.30
2019-01-28T05:52:59.955Z,1.30
2019-01-28T05:55:30.305Z,1.30
2019-01-28T05:58:01.047Z,1.30
2019-01-28T06:00:36.043Z,1.30
2019-01-28T06:03:06.522Z,1.30
2019-01-28T06:05:38.015Z,1.30
2019-01-28T06:08:11.276Z,1.30
2019-01-28T06:10:42.412Z,1.30
2019-01-28T06:13:13.148Z,1.30
2019-01-28T06:15:43.690Z,1.20
2019-01-28T06:18:14.372Z,1.20
2019-01-28T06:20:47.486Z,1.20
2019-01-28T06:23:19.536Z,1.20
2019-01-28T06:25:50.191Z,1.30
2019-01-28T06:28:20.730Z,1.30
2019-01-28T06:30:51.479Z,1.30
2019-01-28T06:33:22.339Z,1.30
2019-01-28T06:35:52.839Z,1.30
2019-01-28T06:38:23.419Z,1.30
2019-01-28T06:40:53.787Z,1.30
2019-01-28T06:43:24.127Z,1.30
2019-01-28T06:48:24.415Z,1.40
2019-01-28T06:50:54.794Z,1.40
2019-01-28T06:53:25.213Z,1.40
2019-01-28T06:55:55.587Z,1.40
2019-01-28T06:58:25.923Z,1.40
2019-01-28T07:03:25.971Z,1.50
2019-01-28T07:05:56.362Z,1.50
2019-01-28T07:08:27.244Z,1.50
2019-01-28T07:10:58.250Z,1.40
2019-01-28T07:13:28.710Z,1.40
2019-01-28T07:18:30.523Z,1.50
2019-01-28T07:21:04.204Z,1.50
2019-01-28T07:23:37.339Z,1.60
2019-01-28T07:26:07.679Z,1.70
2019-01-28T07:28:38.102Z,1.70
2019-01-28T07:31:08.439Z,1.70
2019-01-28T07:33:38.786Z,1.70
2019-01-28T07:36:09.136Z,1.70
2019-01-28T07:38:40.871Z,1.80
2019-01-28T07:41:11.243Z,1.80
2019-01-28T07:43:41.934Z,1.90
2019-01-28T07:46:12.347Z,1.90
2019-01-28T07:48:42.678Z,1.90
2019-01-28T07:51:13.059Z,1.80
2019-01-28T07:53:43.396Z,1.80
2019-01-28T07:56:13.772Z,1.80
2019-01-28T07:58:45.580Z,1.80
2019-01-28T08:01:15.987Z,1.80
2019-01-28T08:03:46.331Z,1.80
2019-01-28T08:08:46.279Z,1.80
2019-01-28T08:11:16.611Z,1.90
2019-01-28T08:13:46.987Z,2.00
2019-01-28T08:18:48.015Z,2.00
2019-01-28T08:21:18.360Z,2.00
2019-01-28T08:23:48.804Z,2.00
2019-01-28T08:28:48.764Z,2.00
2019-01-28T08:31:19.115Z,2.00
2019-01-28T08:33:49.471Z,2.00
2019-01-28T08:36:19.840Z,1.90
2019-01-28T08:38:50.176Z,1.80
2019-01-28T08:41:20.515Z,1.90
2019-01-28T08:43:51.028Z,1.90
2019-01-28T08:46:22.221Z,2.00
2019-01-28T08:48:52.568Z,2.00
2019-01-28T08:51:22.911Z,2.00
2019-01-28T08:53:53.243Z,2.00
2019-01-28T08:56:23.696Z,2.00
2019-01-28T08:58:54.107Z,1.90
2019-01-28T09:01:24.451Z,2.00
2019-01-28T09:03:54.780Z,1.90
2019-01-28T09:06:25.223Z,1.90
2019-01-28T09:08:55.563Z,2.00
2019-01-28T09:11:25.919Z,2.00
2019-01-28T09:13:56.255Z,2.10
2019-01-28T09:16:40.988Z,2.10
2019-01-28T09:19:11.423Z,2.00
2019-01-28T09:21:41.954Z,2.00
2019-01-28T09:26:55.967Z,2.10
2019-01-28T09:29:27.000Z,2.10
2019-01-28T09:31:57.399Z,2.10
2019-01-28T09:34:30.371Z,2.00
2019-01-28T09:37:00.711Z,2.10
2019-01-28T09:39:31.356Z,2.10
2019-01-28T09:42:01.914Z,2.10
2019-01-28T09:44:32.303Z,2.10
2019-01-28T09:47:02.647Z,2.20
2019-01-28T09:49:33.177Z,2.30
2019-01-28T09:54:33.299Z,2.40
2019-01-28T09:57:03.760Z,2.50
2019-01-28T09:59:34.103Z,2.70
2019-01-28T10:02:04.591Z,2.80
2019-01-28T10:04:34.935Z,3.10
2019-01-28T10:07:06.450Z,3.10
2019-01-28T10:09:38.468Z,3.30
2019-01-28T10:12:09.015Z,3.50
2019-01-28T10:14:39.379Z,3.60
2019-01-28T10:19:39.366Z,3.70
2019-01-28T10:24:39.423Z,3.70
2019-01-28T10:27:09.767Z,3.90
2019-01-28T10:32:11.619Z,4.00
2019-01-28T10:37:11.631Z,3.90
2019-01-28T10:39:42.003Z,3.80
2019-01-28T10:42:12.348Z,3.80
2019-01-28T10:44:42.692Z,3.80
2019-01-28T10:47:13.044Z,3.60
2019-01-28T10:49:43.379Z,3.60
2019-01-28T10:52:14.118Z,3.60
2019-01-28T10:54:44.486Z,3.60
2019-01-28T10:57:15.323Z,3.70
2019-01-28T10:59:48.310Z,3.70
2019-01-28T11:02:18.904Z,3.80
2019-01-28T11:04:49.239Z,3.80
2019-01-28T11:07:19.595Z,4.00
2019-01-28T11:09:49.974Z,4.20
2019-01-28T11:12:20.455Z,4.20
2019-01-28T11:14:50.883Z,4.20
2019-01-28T11:17:21.269Z,4.30
2019-01-28T11:19:51.751Z,4.40
2019-01-28T11:24:52.458Z,4.70
2019-01-28T11:27:22.791Z,4.70
2019-01-28T11:29:53.371Z,4.70
2019-01-28T11:32:23.839Z,4.60
2019-01-28T11:34:54.273Z,4.60
2019-01-28T11:37:24.913Z,4.50
2019-01-28T11:39:55.310Z,4.40
2019-01-28T11:42:25.837Z,4.30
2019-01-28T11:44:56.267Z,4.30
2019-01-28T11:47:26.767Z,4.30
2019-01-28T11:49:57.254Z,4.30
2019-01-28T11:52:27.643Z,4.30
2019-01-28T11:54:57.975Z,4.30
2019-01-28T11:57:29.387Z,4.40
2019-01-28T12:00:00.804Z,4.40
2019-01-28T12:02:34.316Z,4.50
2019-01-28T12:05:03.275Z,4.50
2019-01-28T12:07:33.680Z,4.50
2019-01-28T12:10:04.840Z,4.50
2019-01-28T12:12:35.251Z,4.70
2019-01-28T12:15:07.011Z,4.70
2019-01-28T12:17:37.728Z,4.80
2019-01-28T12:20:08.683Z,4.80
2019-01-28T12:22:39.059Z,4.90
2019-01-28T12:25:10.812Z,4.90
2019-01-28T12:27:41.283Z,5.00
2019-01-28T12:30:16.123Z,4.90
2019-01-28T12:32:46.507Z,4.90
2019-01-28T12:35:17.506Z,5.10
2019-01-28T12:37:48.071Z,5.10
2019-01-28T12:40:18.927Z,5.30
2019-01-28T12:42:52.706Z,5.30
2019-01-28T12:45:23.364Z,5.30
2019-01-28T12:47:53.722Z,5.20
2019-01-28T12:50:24.416Z,5.10
2019-01-28T12:52:54.796Z,5.00
2019-01-28T12:55:25.346Z,4.90
2019-01-28T12:57:55.839Z,4.80
2019-01-28T13:00:32.152Z,4.90
2019-01-28T13:03:02.475Z,4.90
2019-01-28T13:05:32.815Z,5.00
2019-01-28T13:08:03.139Z,5.00
2019-01-28T13:10:33.511Z,4.90
2019-01-28T13:13:03.843Z,4.80
2019-01-28T13:15:34.320Z,4.80
2019-01-28T13:18:04.682Z,4.80
2019-01-28T13:20:57.260Z,4.60
2019-01-28T13:23:29.227Z,4.50
2019-01-28T13:25:59.568Z,4.40
2019-01-28T13:28:29.987Z,4.40
2019-01-28T13:31:00.383Z,4.30
2019-01-28T13:33:30.723Z,4.30
2019-01-28T13:36:01.089Z,4.30
2019-01-28T13:38:31.951Z,4.30
2019-01-28T13:41:02.471Z,4.30
2019-01-28T13:43:32.818Z,4.10
2019-01-28T13:46:03.148Z,4.20
2019-01-28T13:48:33.499Z,4.00
2019-01-28T13:53:33.467Z,4.10
2019-01-28T13:56:03.923Z,4.10
2019-01-28T13:58:34.275Z,4.20
2019-01-28T14:01:05.467Z,4.20
2019-01-28T14:03:35.807Z,4.30
2019-01-28T14:06:06.267Z,4.30
2019-01-28T14:08:36.771Z,4.40
2019-01-28T14:11:07.603Z,4.20
2019-01-28T14:13:37.947Z,4.20
2019-01-28T14:16:10.374Z,4.20
2019-01-28T14:18:42.120Z,4.00
2019-01-28T14:21:12.604Z,3.90
2019-01-28T14:23:42.935Z,3.80
2019-01-28T14:26:13.695Z,3.80
2019-01-28T14:28:44.036Z,3.70
2019-01-28T14:31:14.535Z,3.60
2019-01-28T14:33:44.952Z,3.50
2019-01-28T14:36:15.311Z,3.60
2019-01-28T14:38:45.699Z,3.60
2019-01-28T14:41:16.066Z,3.50
2019-01-28T14:43:46.507Z,3.40
2019-01-28T14:48:49.198Z,3.20
2019-01-28T14:51:18.725Z,3.20
2019-01-28T14:53:49.139Z,3.10
2019-01-28T14:56:22.855Z,3.00
2019-01-28T14:58:53.203Z,2.90
2019-01-28T15:01:23.641Z,2.80
2019-01-28T15:03:55.143Z,2.60
2019-01-28T15:06:25.491Z,2.60
2019-01-28T15:08:55.863Z,2.60
2019-01-28T15:11:26.245Z,2.60
2019-01-28T15:13:56.579Z,2.50
2019-01-28T15:16:26.963Z,2.50
2019-01-28T15:18:57.295Z,2.50
2019-01-28T15:21:27.672Z,2.50
2019-01-28T15:23:58.012Z,2.50
2019-01-28T15:26:28.435Z,2.40
2019-01-28T15:28:58.956Z,2.40
2019-01-28T15:31:29.340Z,2.30
2019-01-28T15:34:17.423Z,2.30
2019-01-28T15:36:47.870Z,2.20
2019-01-28T15:41:47.899Z,2.30
2019-01-28T15:44:18.324Z,2.20
2019-01-28T15:46:48.679Z,2.20
2019-01-28T15:51:48.757Z,2.20
2019-01-28T15:54:19.172Z,2.10
2019-01-28T15:56:49.525Z,2.10
2019-01-28T16:01:49.707Z,2.00
2019-01-28T16:04:20.099Z,1.90
2019-01-28T16:06:50.599Z,1.90
2019-01-28T16:09:28.693Z,1.90
2019-01-28T16:11:53.379Z,1.80
2019-01-28T16:14:23.796Z,1.70
2019-01-28T16:16:54.616Z,1.60
2019-01-28T16:21:57.177Z,1.60
2019-01-28T16:24:28.699Z,1.60
2019-01-28T16:26:59.135Z,1.60
2019-01-28T16:31:59.245Z,1.60
2019-01-28T16:34:29.579Z,1.50
2019-01-28T16:36:59.934Z,1.50
2019-01-28T16:39:30.360Z,1.50
2019-01-28T16:42:00.781Z,1.40
2019-01-28T16:44:31.191Z,1.30
2019-01-28T16:49:37.883Z,1.30
2019-01-28T16:52:10.444Z,1.30
2019-01-28T16:54:42.602Z,1.20
2019-01-28T16:57:13.036Z,1.20
2019-01-28T16:59:43.413Z,1.10
2019-01-28T17:02:13.747Z,1.10
2019-01-28T17:04:46.449Z,1.10
2019-01-28T17:07:16.789Z,1.00
2019-01-28T17:09:47.520Z,0.90
2019-01-28T17:12:18.264Z,0.90
2019-01-28T17:17:18.200Z,0.90
2019-01-28T17:19:51.117Z,0.80
2019-01-28T17:24:51.452Z,0.70
2019-01-28T17:29:52.687Z,0.60
2019-01-28T17:32:24.965Z,0.60
2019-01-28T17:37:26.176Z,0.60
2019-01-28T17:39:57.871Z,0.60
2019-01-28T17:42:28.440Z,0.50
2019-01-28T17:44:58.892Z,0.60
2019-01-28T17:47:34.788Z,0.50
2019-01-28T17:50:06.107Z,0.50
2019-01-28T17:52:37.615Z,0.50
2019-01-28T17:55:08.483Z,0.50
2019-01-28T17:57:38.831Z,0.50
2019-01-28T18:00:13.541Z,0.50
2019-01-28T18:02:44.328Z,0.50
2019-01-28T18:05:14.876Z,0.50
2019-01-28T18:07:45.207Z,0.50
2019-01-28T18:10:16.327Z,0.50
2019-01-28T18:12:57.327Z,0.60
2019-01-28T18:15:27.729Z,0.70
2019-01-28T18:17:58.150Z,0.80
2019-01-28T18:20:28.516Z,0.80
2019-01-28T18:22:58.935Z,0.70
2019-01-28T18:25:30.207Z,0.70
2019-01-28T18:28:00.620Z,0.70
2019-01-28T18:30:44.476Z,0.70
2019-01-28T18:33:15.208Z,0.70
2019-01-28T18:35:45.856Z,0.60
2019-01-28T18:38:16.206Z,0.50
2019-01-28T18:40:46.969Z,0.40
2019-01-28T18:43:17.375Z,0.40
2019-01-28T18:45:47.787Z,0.30
2019-01-28T18:48:18.159Z,0.30
2019-01-28T18:50:48.686Z,0.30
2019-01-28T18:53:19.107Z,0.20
2019-01-28T18:55:49.447Z,0.20
2019-01-28T18:58:19.787Z,0.10
2019-01-28T19:00:50.333Z,0.00
2019-01-28T19:03:20.767Z,0.00
2019-01-28T19:05:56.147Z,0.00
2019-01-28T19:11:42.709Z,-0.20
2019-01-28T19:14:34.920Z,-0.20
2019-01-28T19:17:23.572Z,-0.20
2019-01-28T19:20:15.897Z,-0.20
2019-01-28T19:22:46.239Z,-0.10
2019-01-28T19:25:16.724Z,-0.10
2019-01-28T19:27:47.167Z,-0.10
2019-01-28T19:30:19.623Z,-0.10
2019-01-28T19:32:49.963Z,-0.10
2019-01-28T19:35:21.483Z,-0.10
2019-01-28T19:37:51.924Z,-0.20
2019-01-28T19:40:22.267Z,-0.20
2019-01-28T19:42:52.662Z,-0.20
2019-01-28T19:45:23.343Z,-0.20
2019-01-28T19:47:53.723Z,-0.20
2019-01-28T19:50:25.380Z,-0.20
2019-01-28T19:52:55.751Z,-0.30
2019-01-28T19:55:26.165Z,-0.40
2019-01-28T19:57:56.512Z,-0.40
2019-01-28T20:00:28.708Z,-0.40
2019-01-28T20:05:29.707Z,-0.40
2019-01-28T20:08:00.053Z,-0.40
2019-01-28T20:10:30.403Z,-0.30
2019-01-28T20:15:31.002Z,-0.40
2019-01-28T20:20:31.563Z,-0.30
2019-01-28T20:23:01.992Z,-0.40
2019-01-28T20:25:32.397Z,-0.40
2019-01-28T20:28:02.798Z,-0.40
2019-01-28T20:30:33.211Z,-0.50
2019-01-28T20:33:03.559Z,-0.50
2019-01-28T20:35:34.282Z,-0.50
2019-01-28T20:38:05.015Z,-0.50
2019-01-28T20:40:35.422Z,-0.50
2019-01-28T20:43:05.940Z,-0.50
2019-01-28T20:45:36.299Z,-0.60
2019-01-28T20:48:06.831Z,-0.60
2019-01-28T20:50:37.285Z,-0.70
2019-01-28T20:53:07.736Z,-0.70
2019-01-28T20:58:07.874Z,-0.70
2019-01-28T21:00:38.271Z,-0.70
2019-01-28T21:03:08.764Z,-0.70
2019-01-28T21:05:39.165Z,-0.70
2019-01-28T21:10:40.703Z,-0.80
2019-01-28T21:13:11.050Z,-0.70
2019-01-28T21:15:41.557Z,-0.60
2019-01-28T21:18:12.107Z,-0.50
2019-01-28T21:20:42.480Z,-0.40
2019-01-28T21:23:12.842Z,-0.30
2019-01-28T21:28:12.849Z,-0.10
2019-01-28T21:30:43.215Z,-0.10
2019-01-28T21:33:13.591Z,-0.10
2019-01-28T21:36:08.957Z,0.00
2019-01-28T21:38:44.015Z,-0.10
2019-01-28T21:41:14.355Z,-0.10
2019-01-28T21:43:44.795Z,0.00
2019-01-28T21:46:15.127Z,0.00
2019-01-28T21:48:45.530Z,0.00
2019-01-28T21:51:15.871Z,0.00
2019-01-28T21:53:46.203Z,0.00
2019-01-28T21:58:46.511Z,0.10
2019-01-28T22:03:46.861Z,0.10
2019-01-28T22:08:46.875Z,0.00
2019-01-28T22:13:46.811Z,0.10
2019-01-28T22:18:46.803Z,0.20
2019-01-28T22:21:18.219Z,0.20
2019-01-28T22:23:48.567Z,0.30
2019-01-28T22:26:18.913Z,0.30
2019-01-28T22:28:49.283Z,0.30
2019-01-28T22:31:19.733Z,0.30
2019-01-28T22:33:50.111Z,0.40
2019-01-28T22:36:20.455Z,0.40
2019-01-28T22:38:50.831Z,0.50
2019-01-28T22:41:21.255Z,0.50
2019-01-28T22:43:51.627Z,0.50
2019-01-28T22:46:21.980Z,0.50
2019-01-28T22:48:52.443Z,0.50
2019-01-28T22:51:22.820Z,0.50
2019-01-28T22:53:53.199Z,0.60
2019-01-28T22:56:23.547Z,0.60
2019-01-28T22:58:53.892Z,0.60
2019-01-28T23:01:26.685Z,0.60
2019-01-28T23:03:57.173Z,0.60
2019-01-28T23:06:27.591Z,0.60
2019-01-28T23:08:57.947Z,0.60
2019-01-28T23:11:28.851Z,0.70
2019-01-28T23:13:59.195Z,0.70
2019-01-28T23:16:29.566Z,0.70
2019-01-28T23:18:59.991Z,0.70
2019-01-28T23:23:59.935Z,0.70
2019-01-28T23:26:30.332Z,0.70
2019-01-28T23:29:00.680Z,0.70
2019-01-28T23:34:00.723Z,0.70
2019-01-28T23:39:00.735Z,0.70
2019-01-28T23:44:01.083Z,0.70
2019-01-28T23:49:01.065Z,0.70
2019-01-28T23:54:01.051Z,0.70
2019-01-28T23:59:01.050Z,0.60
